createdAt,value
2023-04-07T00:01:55.823Z,84.54
2023-04-07T00:07:17.502Z,84.37
2023-04-07T00:12:39.264Z,85.58
2023-04-07T00:18:01.205Z,85.84
2023-04-07T00:23:22.930Z,84.59
2023-04-07T00:28:44.635Z,84.76
2023-04-07T00:34:06.749Z,82.63
2023-04-07T00:39:28.513Z,83.73
2023-04-07T00:44:50.543Z,84.65
2023-04-07T00:50:12.294Z,83.38
2023-04-07T00:55:34.169Z,83.72
2023-04-07T01:01:21.631Z,83.64
2023-04-07T01:06:50.116Z,84.56
2023-04-07T01:12:18.125Z,85.10
2023-04-07T01:17:48.225Z,84.04
2023-04-07T01:23:17.558Z,85.91
2023-04-07T01:28:55.254Z,86.69
2023-04-07T01:34:18.154Z,86.55
2023-04-07T01:39:40.139Z,87.23
2023-04-07T01:45:02.641Z,87.11
2023-04-07T01:50:25.292Z,87.18
2023-04-07T01:55:47.011Z,84.50
2023-04-07T02:01:08.823Z,83.54
2023-04-07T02:06:46.764Z,84.49
2023-04-07T02:12:11.729Z,83.03
2023-04-07T02:17:37.938Z,81.71
2023-04-07T02:22:59.675Z,82.19
2023-04-07T02:28:21.351Z,83.11
2023-04-07T02:33:43.008Z,81.87
2023-04-07T02:39:04.805Z,79.90
2023-04-07T02:44:26.473Z,78.41
2023-04-07T02:49:48.250Z,79.88
2023-04-07T02:55:10.144Z,79.28
2023-04-07T03:00:31.835Z,77.54
2023-04-07T03:05:53.523Z,77.76
2023-04-07T03:11:15.504Z,80.41
2023-04-07T03:16:37.195Z,81.32
2023-04-07T03:21:58.960Z,82.20
2023-04-07T03:27:20.711Z,80.36
2023-04-07T03:32:42.478Z,81.89
2023-04-07T03:38:04.200Z,82.07
2023-04-07T03:43:26.578Z,81.10
2023-04-07T03:48:48.262Z,80.73
2023-04-07T03:54:10.025Z,79.52
2023-04-07T03:59:31.709Z,77.94
2023-04-07T04:04:53.525Z,78.44
2023-04-07T04:10:16.159Z,76.65
2023-04-07T04:15:37.876Z,78.51
2023-04-07T04:20:59.620Z,80.31
2023-04-07T04:26:25.740Z,79.92
2023-04-07T04:31:47.861Z,78.83
2023-04-07T04:37:09.764Z,79.24
2023-04-07T04:42:33.746Z,79.01
2023-04-07T04:47:55.680Z,80.55
2023-04-07T04:53:17.461Z,80.08
2023-04-07T04:58:40.414Z,79.14
2023-04-07T05:04:02.503Z,79.80
2023-04-07T05:09:24.344Z,79.58
2023-04-07T05:14:46.157Z,80.70
2023-04-07T05:20:11.431Z,81.16
2023-04-07T05:25:33.401Z,82.17
2023-04-07T05:30:55.193Z,82.17
2023-04-07T05:36:17.121Z,82.46
2023-04-07T05:41:38.878Z,81.89
2023-04-07T05:47:01.167Z,81.10
2023-04-07T05:52:22.872Z,80.83
2023-04-07T05:57:44.588Z,81.80
2023-04-07T06:03:06.348Z,82.61
2023-04-07T06:08:28.174Z,81.50
2023-04-07T06:13:50.157Z,80.63
2023-04-07T06:19:12.095Z,78.56
2023-04-07T06:24:33.764Z,78.95
2023-04-07T06:29:56.558Z,79.67
2023-04-07T06:35:18.308Z,81.14
2023-04-07T06:40:40.047Z,79.76
2023-04-07T06:46:01.750Z,77.21
2023-04-07T06:51:23.459Z,76.97
2023-04-07T06:56:45.357Z,76.94
2023-04-07T07:02:07.656Z,77.41
2023-04-07T07:07:29.684Z,77.17
2023-04-07T07:12:51.762Z,76.14
2023-04-07T07:18:13.428Z,76.18
2023-04-07T07:23:35.118Z,75.24
2023-04-07T07:28:56.889Z,74.16
2023-04-07T07:34:18.604Z,73.74
2023-04-07T07:39:40.388Z,74.75
2023-04-07T07:45:02.069Z,73.75
2023-04-07T07:50:23.855Z,73.43
2023-04-07T07:55:47.149Z,73.00
2023-04-07T08:01:08.889Z,72.81
2023-04-07T08:06:31.500Z,76.29
2023-04-07T08:11:53.356Z,75.63
2023-04-07T08:17:15.386Z,73.41
2023-04-07T08:22:37.547Z,72.98
2023-04-07T08:27:59.248Z,72.53
2023-04-07T08:33:20.899Z,68.59
2023-04-07T08:38:42.601Z,69.04
2023-04-07T08:44:08.644Z,69.96
2023-04-07T08:49:33.040Z,69.99
2023-04-07T08:54:56.003Z,69.54
2023-04-07T09:00:18.489Z,68.06
2023-04-07T09:05:40.503Z,69.04
2023-04-07T09:11:02.707Z,69.10
2023-04-07T09:16:25.557Z,67.10
2023-04-07T09:21:49.873Z,66.42
2023-04-07T09:27:19.119Z,66.94
2023-04-07T09:32:41.499Z,66.37
2023-04-07T09:38:08.434Z,66.29
2023-04-07T09:43:30.136Z,65.60
2023-04-07T09:49:07.337Z,65.14
2023-04-07T09:54:42.441Z,65.26
2023-04-07T10:00:05.270Z,64.80
2023-04-07T10:05:28.512Z,64.23
2023-04-07T10:10:51.311Z,64.64
2023-04-07T10:16:13.469Z,64.67
2023-04-07T10:21:39.308Z,64.30
2023-04-07T10:27:08.072Z,62.92
2023-04-07T10:32:29.881Z,63.30
2023-04-07T10:38:06.935Z,62.48
2023-04-07T10:43:41.520Z,62.97
2023-04-07T10:49:10.235Z,63.78
2023-04-07T10:54:31.925Z,63.95
2023-04-07T11:00:11.921Z,63.29
2023-04-07T11:05:33.740Z,62.89
2023-04-07T11:10:55.483Z,61.34
2023-04-07T11:16:35.596Z,60.90
2023-04-07T11:27:44.802Z,60.35
2023-04-07T11:33:07.700Z,60.23
2023-04-07T11:38:35.343Z,63.85
2023-04-07T11:44:10.914Z,65.92
2023-04-07T11:49:32.709Z,68.82
2023-04-07T11:54:54.759Z,67.28
2023-04-07T12:00:16.710Z,68.15
2023-04-07T12:05:43.230Z,69.46
2023-04-07T12:11:05.356Z,72.46
2023-04-07T12:16:27.620Z,74.77
2023-04-07T12:21:49.607Z,80.38
2023-04-07T12:27:11.728Z,81.05
2023-04-07T12:32:33.950Z,78.11
2023-04-07T12:37:58.541Z,80.53
2023-04-07T12:43:20.291Z,82.53
2023-04-07T12:48:42.160Z,83.93
2023-04-07T12:54:04.302Z,83.50
2023-04-07T12:59:26.070Z,82.09
2023-04-07T13:04:47.787Z,78.90
2023-04-07T13:10:09.878Z,79.32
2023-04-07T13:15:31.554Z,78.61
2023-04-07T13:21:13.152Z,78.88
2023-04-07T13:26:35.059Z,76.82
2023-04-07T13:32:07.293Z,76.20
2023-04-07T13:37:29.024Z,78.14
2023-04-07T13:42:51.092Z,78.31
2023-04-07T13:48:12.905Z,78.33
2023-04-07T13:53:34.618Z,80.32
2023-04-07T13:58:56.434Z,80.19
2023-04-07T14:04:18.170Z,78.94
2023-04-07T14:09:40.011Z,78.04
2023-04-07T14:15:01.948Z,77.92
2023-04-07T14:20:24.955Z,76.76
2023-04-07T14:25:48.350Z,76.63
2023-04-07T14:31:17.010Z,75.37
2023-04-07T14:36:38.849Z,75.48
2023-04-07T14:42:00.767Z,75.81
2023-04-07T14:47:22.588Z,76.47
2023-04-07T14:52:44.574Z,75.82
2023-04-07T14:58:06.332Z,76.40
2023-04-07T15:03:28.194Z,76.32
2023-04-07T15:08:50.188Z,75.84
2023-04-07T15:14:12.324Z,76.68
2023-04-07T15:19:34.123Z,74.29
2023-04-07T15:24:55.962Z,69.91
2023-04-07T15:30:17.820Z,72.60
2023-04-07T15:35:42.611Z,72.21
2023-04-07T15:41:04.428Z,71.63
2023-04-07T15:46:26.847Z,69.75
2023-04-07T15:51:49.128Z,70.42
2023-04-07T15:57:11.527Z,71.56
2023-04-07T16:02:33.348Z,72.71
2023-04-07T16:07:55.190Z,72.36
2023-04-07T16:13:16.963Z,71.27
2023-04-07T16:18:38.760Z,71.67
2023-04-07T16:24:00.518Z,71.97
2023-04-07T16:29:25.190Z,72.50
2023-04-07T16:34:46.946Z,72.45
2023-04-07T16:40:10.078Z,74.27
2023-04-07T16:45:31.806Z,72.29
2023-04-07T16:50:53.570Z,75.56
2023-04-07T16:56:19.571Z,75.95
2023-04-07T17:01:42.994Z,77.27
2023-04-07T17:07:05.581Z,77.48
2023-04-07T17:12:27.368Z,77.31
2023-04-07T17:17:50.213Z,75.76
2023-04-07T17:23:12.085Z,77.52
2023-04-07T17:28:33.881Z,77.79
2023-04-07T17:33:55.593Z,78.53
2023-04-07T17:39:17.512Z,80.13
2023-04-07T17:44:39.254Z,78.86
2023-04-07T17:50:01.844Z,74.76
2023-04-07T17:55:23.985Z,74.62
2023-04-07T18:00:46.045Z,74.55
2023-04-07T18:06:09.258Z,75.44
2023-04-07T18:11:32.339Z,76.36
2023-04-07T18:16:55.248Z,76.56
2023-04-07T18:22:18.043Z,75.35
2023-04-07T18:27:40.175Z,74.22
2023-04-07T18:33:01.970Z,75.91
2023-04-07T18:38:23.699Z,73.64
2023-04-07T18:43:48.748Z,74.45
2023-04-07T18:49:10.692Z,75.43
2023-04-07T18:54:32.594Z,74.37
2023-04-07T18:59:55.392Z,74.48
2023-04-07T19:05:17.214Z,74.72
2023-04-07T19:10:38.934Z,75.93
2023-04-07T19:16:01.686Z,75.38
2023-04-07T19:21:23.503Z,76.19
2023-04-07T19:26:45.264Z,76.60
2023-04-07T19:32:07.130Z,78.00
2023-04-07T19:37:29.074Z,77.97
2023-04-07T19:42:55.365Z,78.56
2023-04-07T19:48:17.529Z,79.11
2023-04-07T19:53:39.292Z,78.33
2023-04-07T19:59:01.042Z,77.94
2023-04-07T20:04:22.789Z,79.26
2023-04-07T20:09:44.909Z,79.76
2023-04-07T20:15:07.889Z,79.88
2023-04-07T20:20:29.705Z,80.09
2023-04-07T20:25:51.708Z,80.90
2023-04-07T20:31:13.523Z,80.67
2023-04-07T20:36:35.401Z,80.80
2023-04-07T20:41:57.177Z,80.63
2023-04-07T20:47:19.020Z,80.43
2023-04-07T20:52:43.364Z,81.29
2023-04-07T20:58:05.123Z,80.99
2023-04-07T21:03:28.011Z,80.94
2023-04-07T21:08:50.081Z,81.03
2023-04-07T21:14:12.477Z,81.20
2023-04-07T21:19:34.196Z,82.23
2023-04-07T21:24:57.365Z,81.92
2023-04-07T21:30:21.056Z,81.79
2023-04-07T21:35:42.805Z,82.03
2023-04-07T21:41:04.631Z,82.64
2023-04-07T21:46:27.080Z,82.27
2023-04-07T21:51:49.302Z,82.66
2023-04-07T21:57:12.744Z,81.53
2023-04-07T22:02:35.486Z,81.94
2023-04-07T22:07:57.437Z,81.76
2023-04-07T22:13:19.153Z,83.36
2023-04-07T22:18:40.825Z,82.63
2023-04-07T22:24:02.532Z,82.34
2023-04-07T22:29:24.289Z,82.70
2023-04-07T22:34:46.607Z,83.47
2023-04-07T22:40:09.471Z,83.07
2023-04-07T22:45:31.540Z,83.59
2023-04-07T22:50:54.536Z,82.80
2023-04-07T22:56:16.265Z,83.32
2023-04-07T23:01:38.284Z,83.67
2023-04-07T23:07:00.330Z,84.18
2023-04-07T23:12:22.090Z,83.94
2023-04-07T23:17:43.842Z,84.37
2023-04-07T23:23:05.749Z,83.84
2023-04-07T23:28:28.057Z,84.33
2023-04-07T23:33:49.719Z,84.38
2023-04-07T23:39:11.495Z,84.40
2023-04-07T23:44:33.225Z,85.06
2023-04-07T23:49:54.893Z,85.12
2023-04-07T23:55:16.657Z,84.73
